Terminal Aerodrome Forecast
Issued by NWS Sterling, VA

Current Version | Previous Version | Graphics & Text | Print | Product List | Glossary On
Versions: 1 2 3 4 5 6 7 8 9 10 11 12
000
FTUS41 KLWX 261100
TAFMRB
TAF
KMRB 261135Z 2612/2712 00000KT 5SM BR SKC
     FM261230 VRB03KT P6SM SKC
     FM261600 17005KT P6SM FEW050
     FM270400 00000KT 4SM BR SKC=

USA.gov is the U.S. government's official web portal to all federal, state and local government web resources and services.